sensor_id;sensor_type;location;lat;lon;timestamp;P1;durP1;ratioP1;P2;durP2;ratioP2
9720;SDS011;4899;42.644;23.366;2023-08-07T00:01:40;1.60;;;1.50;;
9720;SDS011;4899;42.644;23.366;2023-08-07T00:04:05;1.60;;;1.50;;
9720;SDS011;4899;42.644;23.366;2023-08-07T00:06:31;1.83;;;1.73;;
9720;SDS011;4899;42.644;23.366;2023-08-07T00:08:56;1.57;;;1.47;;
9720;SDS011;4899;42.644;23.366;2023-08-07T00:11:21;1.87;;;1.77;;
9720;SDS011;4899;42.644;23.366;2023-08-07T00:13:46;1.97;;;1.80;;
9720;SDS011;4899;42.644;23.366;2023-08-07T00:16:12;1.50;;;1.50;;
9720;SDS011;4899;42.644;23.366;2023-08-07T00:18:37;2.43;;;1.80;;
9720;SDS011;4899;42.644;23.366;2023-08-07T00:21:02;1.77;;;1.60;;
9720;SDS011;4899;42.644;23.366;2023-08-07T00:23:27;1.87;;;1.77;;
9720;SDS011;4899;42.644;23.366;2023-08-07T00:25:53;2.00;;;1.90;;
9720;SDS011;4899;42.644;23.366;2023-08-07T00:28:24;1.87;;;1.77;;
9720;SDS011;4899;42.644;23.366;2023-08-07T00:30:49;1.70;;;1.60;;
9720;SDS011;4899;42.644;23.366;2023-08-07T00:33:14;1.60;;;1.50;;
9720;SDS011;4899;42.644;23.366;2023-08-07T00:35:40;1.87;;;1.77;;
9720;SDS011;4899;42.644;23.366;2023-08-07T00:38:05;2.53;;;1.90;;
9720;SDS011;4899;42.644;23.366;2023-08-07T00:40:37;1.87;;;1.77;;
9720;SDS011;4899;42.644;23.366;2023-08-07T00:43:04;2.17;;;2.07;;
9720;SDS011;4899;42.644;23.366;2023-08-07T00:45:29;2.30;;;2.20;;
9720;SDS011;4899;42.644;23.366;2023-08-07T00:47:54;2.07;;;1.97;;
9720;SDS011;4899;42.644;23.366;2023-08-07T00:50:20;2.13;;;2.03;;
9720;SDS011;4899;42.644;23.366;2023-08-07T00:52:47;1.97;;;1.83;;
9720;SDS011;4899;42.644;23.366;2023-08-07T00:55:12;2.10;;;2.00;;
9720;SDS011;4899;42.644;23.366;2023-08-07T00:57:37;2.20;;;2.10;;
9720;SDS011;4899;42.644;23.366;2023-08-07T01:00:21;3.33;;;2.10;;
9720;SDS011;4899;42.644;23.366;2023-08-07T01:02:47;2.50;;;2.40;;
9720;SDS011;4899;42.644;23.366;2023-08-07T01:05:15;2.30;;;2.20;;
9720;SDS011;4899;42.644;23.366;2023-08-07T01:07:41;2.33;;;1.90;;
9720;SDS011;4899;42.644;23.366;2023-08-07T01:10:06;2.40;;;2.30;;
9720;SDS011;4899;42.644;23.366;2023-08-07T01:12:36;2.47;;;2.37;;
9720;SDS011;4899;42.644;23.366;2023-08-07T01:15:12;2.30;;;2.20;;
9720;SDS011;4899;42.644;23.366;2023-08-07T01:17:39;2.73;;;2.43;;
9720;SDS011;4899;42.644;23.366;2023-08-07T01:20:07;3.00;;;2.80;;
9720;SDS011;4899;42.644;23.366;2023-08-07T01:22:34;2.73;;;2.53;;
9720;SDS011;4899;42.644;23.366;2023-08-07T01:24:59;3.00;;;2.80;;
9720;SDS011;4899;42.644;23.366;2023-08-07T01:27:45;2.97;;;2.70;;
9720;SDS011;4899;42.644;23.366;2023-08-07T01:30:13;2.90;;;2.70;;
9720;SDS011;4899;42.644;23.366;2023-08-07T01:35:26;3.00;;;2.87;;
9720;SDS011;4899;42.644;23.366;2023-08-07T01:37:54;3.10;;;2.90;;
9720;SDS011;4899;42.644;23.366;2023-08-07T01:40:20;2.90;;;2.67;;
9720;SDS011;4899;42.644;23.366;2023-08-07T01:42:47;4.13;;;3.27;;
9720;SDS011;4899;42.644;23.366;2023-08-07T01:45:13;3.20;;;3.00;;
9720;SDS011;4899;42.644;23.366;2023-08-07T01:47:38;3.60;;;3.40;;
9720;SDS011;4899;42.644;23.366;2023-08-07T01:50:04;3.07;;;2.87;;
9720;SDS011;4899;42.644;23.366;2023-08-07T01:54:58;3.47;;;3.27;;
9720;SDS011;4899;42.644;23.366;2023-08-07T01:57:24;3.67;;;3.23;;
9720;SDS011;4899;42.644;23.366;2023-08-07T01:59:50;3.73;;;3.53;;
9720;SDS011;4899;42.644;23.366;2023-08-07T02:02:15;3.53;;;3.27;;
9720;SDS011;4899;42.644;23.366;2023-08-07T02:04:40;4.27;;;3.40;;
9720;SDS011;4899;42.644;23.366;2023-08-07T02:07:11;3.40;;;3.20;;
9720;SDS011;4899;42.644;23.366;2023-08-07T02:09:37;3.80;;;3.27;;
9720;SDS011;4899;42.644;23.366;2023-08-07T02:12:02;3.90;;;3.50;;
9720;SDS011;4899;42.644;23.366;2023-08-07T02:14:28;3.50;;;3.20;;
9720;SDS011;4899;42.644;23.366;2023-08-07T02:16:53;3.17;;;2.97;;
9720;SDS011;4899;42.644;23.366;2023-08-07T02:19:19;3.57;;;3.37;;
9720;SDS011;4899;42.644;23.366;2023-08-07T02:21:44;3.83;;;3.63;;
9720;SDS011;4899;42.644;23.366;2023-08-07T02:24:09;3.77;;;3.57;;
9720;SDS011;4899;42.644;23.366;2023-08-07T02:26:34;3.73;;;3.53;;
9720;SDS011;4899;42.644;23.366;2023-08-07T02:29:06;4.60;;;4.20;;
9720;SDS011;4899;42.644;23.366;2023-08-07T02:31:34;3.97;;;3.77;;
9720;SDS011;4899;42.644;23.366;2023-08-07T02:33:59;4.30;;;4.00;;
9720;SDS011;4899;42.644;23.366;2023-08-07T02:36:24;3.77;;;3.57;;
9720;SDS011;4899;42.644;23.366;2023-08-07T02:38:49;4.33;;;4.03;;
9720;SDS011;4899;42.644;23.366;2023-08-07T02:41:15;4.50;;;4.20;;
9720;SDS011;4899;42.644;23.366;2023-08-07T02:43:40;4.50;;;4.20;;
9720;SDS011;4899;42.644;23.366;2023-08-07T02:46:05;4.23;;;3.93;;
9720;SDS011;4899;42.644;23.366;2023-08-07T02:48:30;4.50;;;4.10;;
9720;SDS011;4899;42.644;23.366;2023-08-07T02:50:56;4.50;;;4.10;;
9720;SDS011;4899;42.644;23.366;2023-08-07T02:53:21;3.77;;;3.57;;
9720;SDS011;4899;42.644;23.366;2023-08-07T02:55:46;4.00;;;3.70;;
9720;SDS011;4899;42.644;23.366;2023-08-07T02:58:11;4.20;;;3.90;;
9720;SDS011;4899;42.644;23.366;2023-08-07T03:00:36;4.27;;;3.97;;
9720;SDS011;4899;42.644;23.366;2023-08-07T03:03:02;4.60;;;4.20;;
9720;SDS011;4899;42.644;23.366;2023-08-07T03:05:27;4.90;;;3.80;;
9720;SDS011;4899;42.644;23.366;2023-08-07T03:07:52;3.87;;;3.63;;
9720;SDS011;4899;42.644;23.366;2023-08-07T03:10:18;3.80;;;3.60;;
9720;SDS011;4899;42.644;23.366;2023-08-07T03:12:45;3.90;;;3.60;;
9720;SDS011;4899;42.644;23.366;2023-08-07T03:15:10;4.50;;;4.20;;
9720;SDS011;4899;42.644;23.366;2023-08-07T03:17:36;4.03;;;3.83;;
9720;SDS011;4899;42.644;23.366;2023-08-07T03:20:01;4.03;;;3.73;;
9720;SDS011;4899;42.644;23.366;2023-08-07T03:22:26;3.53;;;3.30;;
9720;SDS011;4899;42.644;23.366;2023-08-07T03:24:51;4.23;;;3.93;;
9720;SDS011;4899;42.644;23.366;2023-08-07T03:29:47;3.77;;;3.57;;
9720;SDS011;4899;42.644;23.366;2023-08-07T03:32:12;4.33;;;3.93;;
9720;SDS011;4899;42.644;23.366;2023-08-07T03:34:40;3.93;;;3.73;;
9720;SDS011;4899;42.644;23.366;2023-08-07T03:37:05;3.77;;;3.47;;
9720;SDS011;4899;42.644;23.366;2023-08-07T03:39:30;3.77;;;3.57;;
9720;SDS011;4899;42.644;23.366;2023-08-07T03:41:57;4.10;;;3.80;;
9720;SDS011;4899;42.644;23.366;2023-08-07T03:44:23;4.03;;;3.50;;
9720;SDS011;4899;42.644;23.366;2023-08-07T03:46:48;4.10;;;3.80;;
9720;SDS011;4899;42.644;23.366;2023-08-07T03:49:14;3.90;;;3.60;;
9720;SDS011;4899;42.644;23.366;2023-08-07T03:51:41;4.20;;;3.90;;
9720;SDS011;4899;42.644;23.366;2023-08-07T03:54:06;4.10;;;3.90;;
9720;SDS011;4899;42.644;23.366;2023-08-07T03:56:31;3.90;;;3.70;;
9720;SDS011;4899;42.644;23.366;2023-08-07T03:59:01;3.67;;;3.37;;
9720;SDS011;4899;42.644;23.366;2023-08-07T04:01:26;4.57;;;4.20;;
9720;SDS011;4899;42.644;23.366;2023-08-07T04:03:51;3.40;;;3.20;;
9720;SDS011;4899;42.644;23.366;2023-08-07T04:06:17;3.50;;;3.30;;
9720;SDS011;4899;42.644;23.366;2023-08-07T04:08:44;4.00;;;3.80;;
9720;SDS011;4899;42.644;23.366;2023-08-07T04:11:10;3.60;;;3.40;;
9720;SDS011;4899;42.644;23.366;2023-08-07T04:13:35;3.60;;;3.40;;
9720;SDS011;4899;42.644;23.366;2023-08-07T04:16:01;3.70;;;3.47;;
9720;SDS011;4899;42.644;23.366;2023-08-07T04:18:29;3.10;;;2.90;;
9720;SDS011;4899;42.644;23.366;2023-08-07T04:20:54;3.53;;;3.33;;
9720;SDS011;4899;42.644;23.366;2023-08-07T04:23:20;3.73;;;3.37;;
9720;SDS011;4899;42.644;23.366;2023-08-07T04:25:49;3.23;;;3.03;;
9720;SDS011;4899;42.644;23.366;2023-08-07T04:28:16;2.67;;;2.57;;
9720;SDS011;4899;42.644;23.366;2023-08-07T04:30:42;3.53;;;3.23;;
9720;SDS011;4899;42.644;23.366;2023-08-07T04:33:08;3.27;;;2.97;;
9720;SDS011;4899;42.644;23.366;2023-08-07T04:35:33;3.50;;;3.30;;
9720;SDS011;4899;42.644;23.366;2023-08-07T04:37:58;3.20;;;3.00;;
9720;SDS011;4899;42.644;23.366;2023-08-07T04:40:23;3.27;;;3.07;;
9720;SDS011;4899;42.644;23.366;2023-08-07T04:42:56;3.23;;;2.93;;
9720;SDS011;4899;42.644;23.366;2023-08-07T04:45:21;3.23;;;3.03;;
9720;SDS011;4899;42.644;23.366;2023-08-07T04:47:47;3.30;;;3.10;;
9720;SDS011;4899;42.644;23.366;2023-08-07T04:50:12;3.30;;;3.10;;
9720;SDS011;4899;42.644;23.366;2023-08-07T04:52:39;3.30;;;3.10;;
9720;SDS011;4899;42.644;23.366;2023-08-07T04:55:04;3.23;;;3.03;;
9720;SDS011;4899;42.644;23.366;2023-08-07T04:57:29;3.30;;;3.10;;
9720;SDS011;4899;42.644;23.366;2023-08-07T04:59:56;4.53;;;3.03;;
9720;SDS011;4899;42.644;23.366;2023-08-07T05:02:21;3.53;;;3.33;;
9720;SDS011;4899;42.644;23.366;2023-08-07T05:04:46;3.00;;;2.80;;
9720;SDS011;4899;42.644;23.366;2023-08-07T05:07:13;3.10;;;2.90;;
9720;SDS011;4899;42.644;23.366;2023-08-07T05:09:40;3.20;;;2.80;;
9720;SDS011;4899;42.644;23.366;2023-08-07T05:12:05;3.67;;;3.13;;
9720;SDS011;4899;42.644;23.366;2023-08-07T05:14:33;5.40;;;3.30;;
9720;SDS011;4899;42.644;23.366;2023-08-07T05:16:59;3.03;;;2.70;;
9720;SDS011;4899;42.644;23.366;2023-08-07T05:19:26;3.67;;;3.37;;
9720;SDS011;4899;42.644;23.366;2023-08-07T05:21:59;3.20;;;3.00;;
9720;SDS011;4899;42.644;23.366;2023-08-07T05:24:24;3.20;;;2.90;;
9720;SDS011;4899;42.644;23.366;2023-08-07T05:26:49;3.73;;;3.37;;
9720;SDS011;4899;42.644;23.366;2023-08-07T05:29:14;3.30;;;3.10;;
9720;SDS011;4899;42.644;23.366;2023-08-07T05:31:40;3.17;;;2.87;;
9720;SDS011;4899;42.644;23.366;2023-08-07T05:34:05;2.80;;;2.70;;
9720;SDS011;4899;42.644;23.366;2023-08-07T05:36:31;2.93;;;2.73;;
9720;SDS011;4899;42.644;23.366;2023-08-07T05:38:58;3.60;;;2.77;;
9720;SDS011;4899;42.644;23.366;2023-08-07T05:41:32;3.33;;;3.03;;
9720;SDS011;4899;42.644;23.366;2023-08-07T05:43:57;3.40;;;2.90;;
9720;SDS011;4899;42.644;23.366;2023-08-07T05:46:22;3.43;;;2.80;;
9720;SDS011;4899;42.644;23.366;2023-08-07T05:48:47;3.27;;;2.90;;
9720;SDS011;4899;42.644;23.366;2023-08-07T05:51:13;3.13;;;2.93;;
9720;SDS011;4899;42.644;23.366;2023-08-07T05:53:38;3.17;;;2.97;;
9720;SDS011;4899;42.644;23.366;2023-08-07T05:56:03;3.10;;;2.90;;
9720;SDS011;4899;42.644;23.366;2023-08-07T05:58:28;6.20;;;2.70;;
9720;SDS011;4899;42.644;23.366;2023-08-07T06:00:54;2.60;;;2.40;;
9720;SDS011;4899;42.644;23.366;2023-08-07T06:03:19;2.27;;;2.17;;
9720;SDS011;4899;42.644;23.366;2023-08-07T06:05:45;2.60;;;2.50;;
9720;SDS011;4899;42.644;23.366;2023-08-07T06:08:10;2.40;;;2.20;;
9720;SDS011;4899;42.644;23.366;2023-08-07T06:10:35;2.50;;;2.40;;
9720;SDS011;4899;42.644;23.366;2023-08-07T06:13:01;2.80;;;2.33;;
9720;SDS011;4899;42.644;23.366;2023-08-07T06:15:26;2.00;;;1.90;;
9720;SDS011;4899;42.644;23.366;2023-08-07T06:17:52;2.63;;;2.43;;
9720;SDS011;4899;42.644;23.366;2023-08-07T06:20:17;2.70;;;2.50;;
9720;SDS011;4899;42.644;23.366;2023-08-07T06:22:43;2.70;;;2.60;;
9720;SDS011;4899;42.644;23.366;2023-08-07T06:25:14;3.67;;;2.57;;
9720;SDS011;4899;42.644;23.366;2023-08-07T06:27:39;2.73;;;2.37;;
9720;SDS011;4899;42.644;23.366;2023-08-07T06:30:04;2.53;;;2.40;;
9720;SDS011;4899;42.644;23.366;2023-08-07T06:32:30;3.13;;;2.27;;
9720;SDS011;4899;42.644;23.366;2023-08-07T06:34:55;2.03;;;1.93;;
9720;SDS011;4899;42.644;23.366;2023-08-07T06:37:21;2.47;;;2.37;;
9720;SDS011;4899;42.644;23.366;2023-08-07T06:39:46;2.63;;;2.43;;
9720;SDS011;4899;42.644;23.366;2023-08-07T06:42:11;1.20;;;1.20;;
9720;SDS011;4899;42.644;23.366;2023-08-07T06:44:37;1.80;;;1.70;;
9720;SDS011;4899;42.644;23.366;2023-08-07T06:47:02;1.50;;;1.40;;
9720;SDS011;4899;42.644;23.366;2023-08-07T06:49:27;1.77;;;1.50;;
9720;SDS011;4899;42.644;23.366;2023-08-07T06:51:53;1.20;;;1.20;;
9720;SDS011;4899;42.644;23.366;2023-08-07T06:54:19;1.73;;;1.50;;
9720;SDS011;4899;42.644;23.366;2023-08-07T06:56:44;2.50;;;1.50;;
9720;SDS011;4899;42.644;23.366;2023-08-07T06:59:09;0.90;;;0.90;;
9720;SDS011;4899;42.644;23.366;2023-08-07T07:01:36;2.80;;;1.17;;
9720;SDS011;4899;42.644;23.366;2023-08-07T07:04:01;1.00;;;1.00;;
9720;SDS011;4899;42.644;23.366;2023-08-07T07:06:27;2.00;;;1.30;;
9720;SDS011;4899;42.644;23.366;2023-08-07T07:08:52;1.10;;;1.10;;
9720;SDS011;4899;42.644;23.366;2023-08-07T07:11:20;1.10;;;1.10;;
9720;SDS011;4899;42.644;23.366;2023-08-07T07:13:47;1.23;;;0.87;;
9720;SDS011;4899;42.644;23.366;2023-08-07T07:16:13;1.00;;;1.00;;
9720;SDS011;4899;42.644;23.366;2023-08-07T07:18:39;1.20;;;1.10;;
9720;SDS011;4899;42.644;23.366;2023-08-07T07:21:04;1.70;;;1.00;;
9720;SDS011;4899;42.644;23.366;2023-08-07T07:23:32;1.53;;;1.10;;
9720;SDS011;4899;42.644;23.366;2023-08-07T07:25:57;0.90;;;0.90;;
9720;SDS011;4899;42.644;23.366;2023-08-07T07:28:23;0.90;;;0.90;;
9720;SDS011;4899;42.644;23.366;2023-08-07T07:30:49;1.27;;;1.27;;
9720;SDS011;4899;42.644;23.366;2023-08-07T07:33:14;1.10;;;1.10;;
9720;SDS011;4899;42.644;23.366;2023-08-07T07:35:39;2.87;;;1.40;;
9720;SDS011;4899;42.644;23.366;2023-08-07T07:38:05;1.33;;;1.33;;
9720;SDS011;4899;42.644;23.366;2023-08-07T07:40:31;1.70;;;1.60;;
9720;SDS011;4899;42.644;23.366;2023-08-07T07:42:56;1.63;;;1.53;;
9720;SDS011;4899;42.644;23.366;2023-08-07T07:45:21;1.40;;;1.40;;
9720;SDS011;4899;42.644;23.366;2023-08-07T07:47:46;1.20;;;1.20;;
9720;SDS011;4899;42.644;23.366;2023-08-07T07:50:12;1.33;;;1.33;;
9720;SDS011;4899;42.644;23.366;2023-08-07T07:52:38;3.37;;;1.67;;
9720;SDS011;4899;42.644;23.366;2023-08-07T07:55:04;1.60;;;1.50;;
9720;SDS011;4899;42.644;23.366;2023-08-07T07:57:30;1.50;;;1.50;;
9720;SDS011;4899;42.644;23.366;2023-08-07T07:59:55;1.30;;;1.30;;
9720;SDS011;4899;42.644;23.366;2023-08-07T08:02:26;1.30;;;1.20;;
9720;SDS011;4899;42.644;23.366;2023-08-07T08:04:51;1.47;;;1.37;;
9720;SDS011;4899;42.644;23.366;2023-08-07T08:07:16;2.03;;;1.43;;
9720;SDS011;4899;42.644;23.366;2023-08-07T08:09:42;1.50;;;1.40;;
9720;SDS011;4899;42.644;23.366;2023-08-07T08:12:07;1.60;;;1.50;;
9720;SDS011;4899;42.644;23.366;2023-08-07T08:14:33;1.50;;;1.40;;
9720;SDS011;4899;42.644;23.366;2023-08-07T08:16:59;1.30;;;1.30;;
9720;SDS011;4899;42.644;23.366;2023-08-07T08:19:24;1.93;;;1.70;;
9720;SDS011;4899;42.644;23.366;2023-08-07T08:21:49;1.40;;;1.40;;
9720;SDS011;4899;42.644;23.366;2023-08-07T08:24:16;1.70;;;1.60;;
9720;SDS011;4899;42.644;23.366;2023-08-07T08:26:41;1.87;;;1.50;;
9720;SDS011;4899;42.644;23.366;2023-08-07T08:29:06;1.87;;;1.67;;
9720;SDS011;4899;42.644;23.366;2023-08-07T08:31:33;1.67;;;1.57;;
9720;SDS011;4899;42.644;23.366;2023-08-07T08:33:58;1.70;;;1.60;;
9720;SDS011;4899;42.644;23.366;2023-08-07T08:36:23;1.53;;;1.53;;
9720;SDS011;4899;42.644;23.366;2023-08-07T08:38:59;1.50;;;1.40;;
9720;SDS011;4899;42.644;23.366;2023-08-07T08:41:24;1.73;;;1.63;;
9720;SDS011;4899;42.644;23.366;2023-08-07T08:43:51;1.50;;;1.50;;
9720;SDS011;4899;42.644;23.366;2023-08-07T08:46:18;2.20;;;1.50;;
9720;SDS011;4899;42.644;23.366;2023-08-07T08:48:45;2.40;;;1.30;;
9720;SDS011;4899;42.644;23.366;2023-08-07T08:51:12;1.90;;;1.63;;
9720;SDS011;4899;42.644;23.366;2023-08-07T08:53:38;1.40;;;1.30;;
9720;SDS011;4899;42.644;23.366;2023-08-07T08:56:04;1.60;;;1.50;;
9720;SDS011;4899;42.644;23.366;2023-08-07T08:58:29;1.60;;;1.50;;
9720;SDS011;4899;42.644;23.366;2023-08-07T09:00:55;1.80;;;1.70;;
9720;SDS011;4899;42.644;23.366;2023-08-07T09:03:20;1.50;;;1.40;;
9720;SDS011;4899;42.644;23.366;2023-08-07T09:05:46;1.60;;;1.50;;
9720;SDS011;4899;42.644;23.366;2023-08-07T09:08:12;1.43;;;1.33;;
9720;SDS011;4899;42.644;23.366;2023-08-07T09:10:37;1.90;;;1.17;;
9720;SDS011;4899;42.644;23.366;2023-08-07T09:13:03;1.50;;;1.40;;
9720;SDS011;4899;42.644;23.366;2023-08-07T09:15:31;1.30;;;1.20;;
9720;SDS011;4899;42.644;23.366;2023-08-07T09:17:56;1.43;;;1.33;;
9720;SDS011;4899;42.644;23.366;2023-08-07T09:20:23;1.90;;;1.80;;
9720;SDS011;4899;42.644;23.366;2023-08-07T09:22:49;2.30;;;1.30;;
9720;SDS011;4899;42.644;23.366;2023-08-07T09:25:15;1.10;;;1.10;;
9720;SDS011;4899;42.644;23.366;2023-08-07T09:27:51;1.30;;;1.20;;
9720;SDS011;4899;42.644;23.366;2023-08-07T09:30:16;1.10;;;1.10;;
9720;SDS011;4899;42.644;23.366;2023-08-07T09:32:42;1.40;;;1.30;;
9720;SDS011;4899;42.644;23.366;2023-08-07T09:35:08;1.50;;;1.40;;
9720;SDS011;4899;42.644;23.366;2023-08-07T09:37:36;2.00;;;1.10;;
9720;SDS011;4899;42.644;23.366;2023-08-07T09:40:03;1.20;;;1.20;;
9720;SDS011;4899;42.644;23.366;2023-08-07T09:42:30;1.43;;;1.40;;
9720;SDS011;4899;42.644;23.366;2023-08-07T09:44:55;2.30;;;1.60;;
9720;SDS011;4899;42.644;23.366;2023-08-07T09:47:21;1.70;;;1.60;;
9720;SDS011;4899;42.644;23.366;2023-08-07T09:49:47;3.53;;;1.60;;
9720;SDS011;4899;42.644;23.366;2023-08-07T09:52:13;1.27;;;1.23;;
9720;SDS011;4899;42.644;23.366;2023-08-07T09:54:40;1.47;;;1.37;;
9720;SDS011;4899;42.644;23.366;2023-08-07T09:57:06;1.67;;;1.40;;
9720;SDS011;4899;42.644;23.366;2023-08-07T09:59:32;1.63;;;1.23;;
9720;SDS011;4899;42.644;23.366;2023-08-07T10:01:58;1.50;;;1.40;;
9720;SDS011;4899;42.644;23.366;2023-08-07T10:04:24;1.70;;;1.23;;
9720;SDS011;4899;42.644;23.366;2023-08-07T10:06:50;2.33;;;1.20;;
9720;SDS011;4899;42.644;23.366;2023-08-07T10:09:16;1.63;;;1.33;;
9720;SDS011;4899;42.644;23.366;2023-08-07T10:11:41;1.43;;;1.33;;
9720;SDS011;4899;42.644;23.366;2023-08-07T10:14:07;1.57;;;1.40;;
9720;SDS011;4899;42.644;23.366;2023-08-07T10:16:38;1.43;;;1.33;;
9720;SDS011;4899;42.644;23.366;2023-08-07T10:19:06;1.67;;;1.57;;
9720;SDS011;4899;42.644;23.366;2023-08-07T10:21:32;1.53;;;1.43;;
9720;SDS011;4899;42.644;23.366;2023-08-07T10:23:59;1.33;;;1.33;;
9720;SDS011;4899;42.644;23.366;2023-08-07T10:26:25;1.60;;;1.50;;
9720;SDS011;4899;42.644;23.366;2023-08-07T10:28:51;1.30;;;1.30;;
9720;SDS011;4899;42.644;23.366;2023-08-07T10:31:21;1.40;;;1.30;;
9720;SDS011;4899;42.644;23.366;2023-08-07T10:33:47;1.30;;;1.30;;
9720;SDS011;4899;42.644;23.366;2023-08-07T10:36:15;1.63;;;1.50;;
9720;SDS011;4899;42.644;23.366;2023-08-07T10:38:42;2.17;;;1.40;;
9720;SDS011;4899;42.644;23.366;2023-08-07T10:41:12;1.60;;;1.30;;
9720;SDS011;4899;42.644;23.366;2023-08-07T10:43:38;3.37;;;1.40;;
9720;SDS011;4899;42.644;23.366;2023-08-07T10:46:05;1.43;;;1.30;;
9720;SDS011;4899;42.644;23.366;2023-08-07T10:48:34;2.90;;;1.23;;
9720;SDS011;4899;42.644;23.366;2023-08-07T10:51:05;2.93;;;1.43;;
9720;SDS011;4899;42.644;23.366;2023-08-07T10:53:38;1.40;;;1.30;;
9720;SDS011;4899;42.644;23.366;2023-08-07T10:56:10;1.07;;;1.03;;
9720;SDS011;4899;42.644;23.366;2023-08-07T10:58:36;1.43;;;1.33;;
9720;SDS011;4899;42.644;23.366;2023-08-07T11:04:00;1.53;;;1.43;;
9720;SDS011;4899;42.644;23.366;2023-08-07T11:06:33;2.10;;;1.70;;
9720;SDS011;4899;42.644;23.366;2023-08-07T11:08:59;1.27;;;1.23;;
9720;SDS011;4899;42.644;23.366;2023-08-07T11:11:26;1.23;;;1.20;;
9720;SDS011;4899;42.644;23.366;2023-08-07T11:13:52;1.02;;;1.02;;
9720;SDS011;4899;42.644;23.366;2023-08-07T11:16:17;1.63;;;1.20;;
9720;SDS011;4899;42.644;23.366;2023-08-07T11:18:48;2.22;;;1.17;;
9720;SDS011;4899;42.644;23.366;2023-08-07T11:21:13;0.95;;;0.95;;
9720;SDS011;4899;42.644;23.366;2023-08-07T11:23:42;1.55;;;1.45;;
9720;SDS011;4899;42.644;23.366;2023-08-07T11:26:11;1.20;;;1.20;;
9720;SDS011;4899;42.644;23.366;2023-08-07T11:28:37;1.40;;;1.30;;
9720;SDS011;4899;42.644;23.366;2023-08-07T11:31:02;1.42;;;1.42;;
9720;SDS011;4899;42.644;23.366;2023-08-07T11:33:28;1.52;;;1.42;;
9720;SDS011;4899;42.644;23.366;2023-08-07T11:35:53;1.30;;;1.20;;
9720;SDS011;4899;42.644;23.366;2023-08-07T11:38:29;1.85;;;1.40;;
9720;SDS011;4899;42.644;23.366;2023-08-07T11:40:56;2.60;;;1.70;;
9720;SDS011;4899;42.644;23.366;2023-08-07T11:43:21;1.70;;;1.60;;
9720;SDS011;4899;42.644;23.366;2023-08-07T11:45:47;1.75;;;1.65;;
9720;SDS011;4899;42.644;23.366;2023-08-07T11:48:12;1.50;;;1.40;;
9720;SDS011;4899;42.644;23.366;2023-08-07T11:50:37;1.40;;;1.20;;
9720;SDS011;4899;42.644;23.366;2023-08-07T11:53:03;1.90;;;1.70;;
9720;SDS011;4899;42.644;23.366;2023-08-07T11:55:28;2.83;;;1.23;;
9720;SDS011;4899;42.644;23.366;2023-08-07T11:57:54;1.40;;;1.30;;
9720;SDS011;4899;42.644;23.366;2023-08-07T12:00:20;1.92;;;1.35;;
9720;SDS011;4899;42.644;23.366;2023-08-07T12:02:45;1.23;;;1.20;;
9720;SDS011;4899;42.644;23.366;2023-08-07T12:05:11;1.30;;;1.20;;
9720;SDS011;4899;42.644;23.366;2023-08-07T12:07:39;1.33;;;1.10;;
9720;SDS011;4899;42.644;23.366;2023-08-07T12:10:08;2.00;;;1.15;;
9720;SDS011;4899;42.644;23.366;2023-08-07T12:12:36;1.92;;;1.23;;
9720;SDS011;4899;42.644;23.366;2023-08-07T12:15:01;1.77;;;1.15;;
9720;SDS011;4899;42.644;23.366;2023-08-07T12:17:31;1.23;;;1.23;;
9720;SDS011;4899;42.644;23.366;2023-08-07T12:19:57;1.70;;;1.05;;
9720;SDS011;4899;42.644;23.366;2023-08-07T12:22:23;1.65;;;1.55;;
9720;SDS011;4899;42.644;23.366;2023-08-07T12:24:49;1.63;;;1.15;;
9720;SDS011;4899;42.644;23.366;2023-08-07T12:27:14;1.25;;;1.20;;
9720;SDS011;4899;42.644;23.366;2023-08-07T12:29:39;1.17;;;1.08;;
9720;SDS011;4899;42.644;23.366;2023-08-07T12:32:05;1.67;;;1.10;;
9720;SDS011;4899;42.644;23.366;2023-08-07T12:34:30;1.40;;;1.30;;
9720;SDS011;4899;42.644;23.366;2023-08-07T12:36:56;1.35;;;1.25;;
9720;SDS011;4899;42.644;23.366;2023-08-07T12:39:21;2.42;;;1.20;;
9720;SDS011;4899;42.644;23.366;2023-08-07T12:41:46;1.70;;;1.33;;
9720;SDS011;4899;42.644;23.366;2023-08-07T12:44:13;1.33;;;1.30;;
9720;SDS011;4899;42.644;23.366;2023-08-07T12:46:38;2.22;;;1.40;;
9720;SDS011;4899;42.644;23.366;2023-08-07T12:49:05;1.67;;;1.42;;
9720;SDS011;4899;42.644;23.366;2023-08-07T12:51:32;1.30;;;1.30;;
9720;SDS011;4899;42.644;23.366;2023-08-07T12:53:57;3.00;;;1.33;;
9720;SDS011;4899;42.644;23.366;2023-08-07T12:56:22;1.25;;;1.25;;
9720;SDS011;4899;42.644;23.366;2023-08-07T12:58:48;1.17;;;1.17;;
9720;SDS011;4899;42.644;23.366;2023-08-07T13:01:13;2.03;;;1.50;;
9720;SDS011;4899;42.644;23.366;2023-08-07T13:03:38;2.03;;;1.30;;
9720;SDS011;4899;42.644;23.366;2023-08-07T13:06:04;1.30;;;1.30;;
9720;SDS011;4899;42.644;23.366;2023-08-07T13:08:32;2.17;;;1.33;;
9720;SDS011;4899;42.644;23.366;2023-08-07T13:10:58;4.28;;;1.50;;
9720;SDS011;4899;42.644;23.366;2023-08-07T13:13:23;1.50;;;1.30;;
9720;SDS011;4899;42.644;23.366;2023-08-07T13:15:49;2.67;;;1.65;;
9720;SDS011;4899;42.644;23.366;2023-08-07T13:18:14;3.53;;;1.40;;
9720;SDS011;4899;42.644;23.366;2023-08-07T13:20:42;1.52;;;1.42;;
9720;SDS011;4899;42.644;23.366;2023-08-07T13:23:07;2.08;;;1.30;;
9720;SDS011;4899;42.644;23.366;2023-08-07T13:25:33;6.50;;;1.85;;
9720;SDS011;4899;42.644;23.366;2023-08-07T13:27:58;1.45;;;1.38;;
9720;SDS011;4899;42.644;23.366;2023-08-07T13:30:24;1.27;;;1.17;;
9720;SDS011;4899;42.644;23.366;2023-08-07T13:32:49;1.33;;;1.23;;
9720;SDS011;4899;42.644;23.366;2023-08-07T13:35:14;1.48;;;1.30;;
9720;SDS011;4899;42.644;23.366;2023-08-07T13:37:39;2.83;;;1.48;;
9720;SDS011;4899;42.644;23.366;2023-08-07T13:40:06;1.80;;;1.58;;
9720;SDS011;4899;42.644;23.366;2023-08-07T13:42:32;1.35;;;1.00;;
9720;SDS011;4899;42.644;23.366;2023-08-07T13:44:57;2.50;;;1.45;;
9720;SDS011;4899;42.644;23.366;2023-08-07T13:47:23;3.45;;;1.58;;
9720;SDS011;4899;42.644;23.366;2023-08-07T13:49:52;1.40;;;1.30;;
9720;SDS011;4899;42.644;23.366;2023-08-07T13:52:18;1.52;;;1.35;;
9720;SDS011;4899;42.644;23.366;2023-08-07T13:54:43;3.50;;;1.20;;
9720;SDS011;4899;42.644;23.366;2023-08-07T13:57:08;1.42;;;1.42;;
9720;SDS011;4899;42.644;23.366;2023-08-07T13:59:34;1.40;;;1.30;;
9720;SDS011;4899;42.644;23.366;2023-08-07T14:01:59;3.15;;;1.50;;
9720;SDS011;4899;42.644;23.366;2023-08-07T14:04:24;1.55;;;1.45;;
9720;SDS011;4899;42.644;23.366;2023-08-07T14:06:50;2.20;;;1.33;;
9720;SDS011;4899;42.644;23.366;2023-08-07T14:09:15;1.30;;;1.30;;
9720;SDS011;4899;42.644;23.366;2023-08-07T14:11:41;1.45;;;1.35;;
9720;SDS011;4899;42.644;23.366;2023-08-07T14:14:09;1.40;;;1.30;;
9720;SDS011;4899;42.644;23.366;2023-08-07T14:16:34;1.20;;;1.20;;
9720;SDS011;4899;42.644;23.366;2023-08-07T14:18:59;1.55;;;1.27;;
9720;SDS011;4899;42.644;23.366;2023-08-07T14:21:25;3.92;;;1.80;;
9720;SDS011;4899;42.644;23.366;2023-08-07T14:23:50;1.50;;;1.50;;
9720;SDS011;4899;42.644;23.366;2023-08-07T14:26:15;1.50;;;1.40;;
9720;SDS011;4899;42.644;23.366;2023-08-07T14:28:41;2.05;;;1.40;;
9720;SDS011;4899;42.644;23.366;2023-08-07T14:31:07;1.60;;;1.50;;
9720;SDS011;4899;42.644;23.366;2023-08-07T14:33:33;1.90;;;1.80;;
9720;SDS011;4899;42.644;23.366;2023-08-07T14:35:59;1.95;;;1.75;;
9720;SDS011;4899;42.644;23.366;2023-08-07T14:38:25;2.72;;;1.40;;
9720;SDS011;4899;42.644;23.366;2023-08-07T14:40:50;1.60;;;1.50;;
9720;SDS011;4899;42.644;23.366;2023-08-07T14:43:16;1.50;;;1.40;;
9720;SDS011;4899;42.644;23.366;2023-08-07T14:45:41;1.17;;;1.07;;
9720;SDS011;4899;42.644;23.366;2023-08-07T14:48:06;1.73;;;1.63;;
9720;SDS011;4899;42.644;23.366;2023-08-07T14:50:33;1.53;;;1.43;;
9720;SDS011;4899;42.644;23.366;2023-08-07T14:52:58;1.70;;;1.60;;
9720;SDS011;4899;42.644;23.366;2023-08-07T14:55:23;1.60;;;1.50;;
9720;SDS011;4899;42.644;23.366;2023-08-07T14:57:50;1.60;;;1.50;;
9720;SDS011;4899;42.644;23.366;2023-08-07T15:00:15;9.83;;;1.50;;
9720;SDS011;4899;42.644;23.366;2023-08-07T15:02:41;1.70;;;1.60;;
9720;SDS011;4899;42.644;23.366;2023-08-07T15:05:07;2.83;;;1.60;;